Data for 10/09/2009

Time Sea-Level Adjusted Pressure Absolute Pressure Temperature Relative Humidity Dew Point   
(mb) (inHg) (mb) (inHg) (C) (F) (%) (C) (F)
00:05 1018 30.06 848 25.04 -0.8 30.6 96 -1.4 29.5
00:10 1018 30.06 848 25.04 -0.8 30.6 95 -1.5 29.4
00:15 1018 30.06 848 25.04 -0.9 30.5 95 -1.6 29.1
00:20 1018 30.06 848 25.04 -1.2 29.8 92 -2.3 27.8
00:25 1018 30.06 848 25.04 -1.9 28.5 94 -2.8 26.9
00:30 1019 30.09 848 25.04 -2.3 27.9 95 -3 26.6
00:35 1019 30.09 848 25.04 -2.4 27.8 95 -3 26.6
00:40 1019 30.09 848 25.04 -2.4 27.6 94 -3.3 26.1
00:45 1019 30.09 848 25.04 -2.7 27.1 94 -3.6 25.5
00:50 1019 30.09 848 25.04 -2.9 26.8 94 -3.7 25.4
00:55 1019 30.09 848 25.04 -3 26.6 92 -4.1 24.6
01:00 1019 30.09 848 25.04 -3.2 26.2 90 -4.7 23.6
01:05 1019 30.09 848 25.04 -3.5 25.6 90 -5 23
01:10 1019 30.09 849 25.07 -3.7 25.3 88 -5.5 22.1
01:15 1019 30.09 849 25.07 -4 24.8 89 -5.6 22
01:20 1019 30.09 849 25.07 -4.2 24.4 90 -5.7 21.8
01:25 1020 30.12 849 25.07 -4.6 23.8 88 -6.3 20.7
01:30 1020 30.12 849 25.07 -4.8 23.4 89 -6.3 20.6
01:35 1020 30.12 849 25.07 -5 23 89 -6.5 20.3
01:40 1020 30.12 849 25.07 -5.3 22.5 89 -6.8 19.8
01:45 1020 30.12 849 25.07 -5.5 22.2 91 -6.7 19.9
01:50 1020 30.12 849 25.07 -5.5 22.1 91 -6.7 19.9
01:55 1020 30.12 849 25.07 -5.7 21.8 91 -6.9 19.6
02:00 1020 30.12 849 25.07 -5.8 21.6 91 -7 19.4
02:05 1020 30.12 849 25.07 -6 21.1 92 -7.2 19.1
02:10 1020 30.12 849 25.07 -6.1 21 92 -7.2 19
02:15 1020 30.12 850 25.1 -6.1 21 92 -7.3 18.9
02:20 1020 30.12 850 25.1 -6 21.2 90 -7.4 18.7
02:25 1021 30.15 850 25.1 -6.1 21.1 92 -7.2 19.1
02:30 1021 30.15 850 25.1 -6.2 20.9 91 -7.4 18.8
02:35 1021 30.15 850 25.1 -6.3 20.7 92 -7.4 18.7
02:40 1021 30.15 850 25.1 -6.3 20.7 91 -7.6 18.4
02:45 1021 30.15 850 25.1 -6.3 20.6 91 -7.6 18.3
02:50 1021 30.15 850 25.1 -6.5 20.4 90 -7.9 17.8
02:55 1021 30.15 850 25.1 -6.6 20.2 89 -8.1 17.4
03:00 1021 30.15 850 25.1 -6.6 20.1 90 -8 17.5
03:05 1021 30.15 850 25.1 -6.7 20 88 -8.3 17
03:10 1021 30.15 850 25.1 -6.6 20.2 88 -8.3 17.1
03:15 1021 30.15 850 25.1 -6.5 20.2 87 -8.4 16.8
03:20 1021 30.15 850 25.1 -6.4 20.5 87 -8.2 17.3
03:25 1021 30.15 850 25.1 -6.5 20.4 89 -8 17.6
03:30 1021 30.15 850 25.1 -6.7 20 89 -8.2 17.3
03:35 1021 30.15 850 25.1 -6.7 20 90 -8.1 17.5
03:40 1021 30.15 850 25.1 -6.7 19.9 91 -8 17.5
03:45 1021 30.15 850 25.1 -6.8 19.8 89 -8.3 17.1
03:50 1021 30.15 850 25.1 -6.8 19.7 89 -8.4 16.9
03:55 1021 30.15 850 25.1 -7 19.4 87 -8.8 16.2
04:00 1021 30.15 850 25.1 -7.1 19.3 86 -9 15.8
04:05 1021 30.15 850 25.1 -7 19.4 85 -9.1 15.6
04:10 1021 30.15 850 25.1 -6.8 19.7 84 -9 15.7
04:15 1021 30.15 850 25.1 -6.9 19.5 86 -9 15.9
04:20 1021 30.15 850 25.1 -7 19.3 86 -9 15.8
04:25 1021 30.15 850 25.1 -7.2 19.1 88 -8.8 16.2
04:30 1021 30.15 850 25.1 -7.1 19.3 87 -8.9 16
04:35 1021 30.15 850 25.1 -7.2 19 87 -9 15.8
04:40 1021 30.15 850 25.1 -7.5 18.6 89 -8.9 15.9
04:45 1021 30.15 850 25.1 -7.3 18.9 88 -8.9 16
04:50 1021 30.15 850 25.1 -7.2 19 90 -8.7 16.4
04:55 1021 30.15 850 25.1 -7.3 18.9 90 -8.6 16.5
05:00 1021 30.15 850 25.1 -7.3 18.8 90 -8.7 16.3
05:05 1021 30.15 850 25.1 -7.4 18.6 91 -8.6 16.4
05:10 1021 30.15 850 25.1 -7.5 18.4 89 -9 15.7
05:15 1021 30.15 850 25.1 -7.7 18.1 90 -9.1 15.7
05:20 1021 30.15 850 25.1 -7.7 18.1 90 -9.1 15.6
05:25 1021 30.15 850 25.1 -7.8 18 91 -9.1 15.7
05:30 1021 30.15 850 25.1 -8 17.5 92 -9.1 15.7
05:35 1021 30.15 850 25.1 -8.1 17.5 92 -9.1 15.5
05:40 1021 30.15 851 25.13 -8.2 17.3 91 -9.3 15.2
05:45 1021 30.15 851 25.13 -8.2 17.3 90 -9.5 14.9
05:50 1022 30.18 851 25.13 -8.1 17.4 90 -9.4 15
05:55 1022 30.18 851 25.13 -8.2 17.2 91 -9.4 15.1
06:00 1022 30.18 851 25.13 -8.3 17.1 89 -9.7 14.5
06:05 1022 30.18 851 25.13 -8.3 17 90 -9.7 14.5
06:10 1022 30.18 851 25.13 -8.3 17.1 89 -9.8 14.3
06:15 1022 30.18 851 25.13 -8.4 17 89 -9.9 14.2
06:20 1022 30.18 851 25.13 -8.4 16.9 90 -9.8 14.4
06:25 1022 30.18 851 25.13 -8.5 16.8 90 -9.8 14.3
06:30 1022 30.18 851 25.13 -8.5 16.7 90 -9.8 14.3
06:35 1022 30.18 851 25.13 -8.5 16.7 92 -9.6 14.7
06:40 1022 30.18 851 25.13 -8.5 16.6 92 -9.6 14.7
06:45 1022 30.18 851 25.13 -8.7 16.3 92 -9.8 14.3
06:50 1022 30.18 851 25.13 -8.8 16.2 90 -10.1 13.8
06:55 1022 30.18 852 25.16 -8.9 16.1 90 -10.2 13.6
07:00 1022 30.18 852 25.16 -8.6 16.5 89 -10.1 13.9
07:05 1023 30.21 852 25.16 -8.6 16.6 88 -10.2 13.6
07:10 1023 30.21 852 25.16 -8.7 16.3 89 -10.3 13.5
07:15 1023 30.21 852 25.16 -8.8 16.1 88 -10.4 13.3
07:20 1022 30.18 851 25.13 -8.8 16.2 87 -10.6 12.9
07:25 1022 30.18 852 25.16 -9 15.8 90 -10.3 13.4
07:30 1023 30.21 852 25.16 -8.9 15.9 89 -10.4 13.3
07:35 1023 30.21 852 25.16 -9 15.7 91 -10.2 13.6
07:40 1023 30.21 852 25.16 -9 15.8 90 -10.3 13.5
07:45 1023 30.21 852 25.16 -9 15.8 89 -10.6 13
07:50 1022 30.18 852 25.16 -9.1 15.6 88 -10.8 12.6
07:55 1022 30.18 852 25.16 -9.2 15.4 87 -10.9 12.3
08:00 1023 30.21 852 25.16 -9.3 15.3 88 -10.9 12.4
08:05 1023 30.21 852 25.16 -9.1 15.7 89 -10.6 13
08:10 1023 30.21 852 25.16 -9.1 15.7 88 -10.7 12.8
08:15 1023 30.21 852 25.16 -9 15.7 88 -10.7 12.7
08:20 1023 30.21 852 25.16 -9 15.7 86 -10.9 12.4
08:25 1023 30.21 852 25.16 -9.3 15.3 88 -10.9 12.4
08:30 1023 30.21 852 25.16 -9.1 15.5 88 -10.8 12.5
08:35 1023 30.21 852 25.16 -9.1 15.7 87 -10.8 12.5
08:40 1023 30.21 852 25.16 -9 15.8 88 -10.6 12.8
08:45 1023 30.21 853 25.19 -9 15.8 87 -10.8 12.6
08:50 1023 30.21 853 25.19 -8.9 16 87 -10.7 12.8
08:55 1024 30.24 853 25.19 -8.8 16.3 87 -10.6 13
09:00 1024 30.24 853 25.19 -8.9 16 87 -10.7 12.7
09:05 1023 30.21 853 25.19 -8.9 15.9 82 -11.4 11.4
09:10 1023 30.21 853 25.19 -9 15.8 83 -11.4 11.4
09:15 1024 30.24 853 25.19 -8.7 16.4 81 -11.4 11.4
09:20 1024 30.24 853 25.19 -8.3 17 81 -11 12.2
09:25 1024 30.24 853 25.19 -8.6 16.6 83 -11 12.2
09:30 1024 30.24 853 25.19 -8.9 15.9 82 -11.5 11.3
09:35 1024 30.24 853 25.19 -8.9 15.9 82 -11.5 11.3
09:40 1024 30.24 853 25.19 -8.8 16.2 83 -11.1 12
09:45 1024 30.24 853 25.19 -8.8 16.3 83 -11.1 12
09:50 1024 30.24 853 25.19 -9.1 15.7 84 -11.2 11.8
09:55 1024 30.24 853 25.19 -9.1 15.7 81 -11.8 10.7
10:00 1024 30.24 853 25.19 -9.2 15.5 81 -11.9 10.6
10:05 1024 30.24 853 25.19 -9 15.9 79 -12 10.5
10:10 1024 30.24 853 25.19 -8.8 16.2 76 -12.2 10
10:15 1024 30.24 853 25.19 -8.9 16 82 -11.4 11.5
10:20 1024 30.24 853 25.19 -9 15.8 85 -11 12.1
10:25 1024 30.24 853 25.19 -9 15.9 83 -11.3 11.7
10:30 1024 30.24 853 25.19 -9.1 15.6 83 -11.4 11.4
10:35 1024 30.24 853 25.19 -9.2 15.4 83 -11.7 11
10:40 1024 30.24 853 25.19 -9.2 15.4 81 -11.8 10.7
10:45 1024 30.24 853 25.19 -8.9 15.9 80 -11.7 10.9
10:50 1024 30.24 853 25.19 -8.8 16.2 77 -12 10.4
10:55 1024 30.24 853 25.19 -9 15.7 79 -12 10.4
11:00 1024 30.24 854 25.22 -8.9 15.9 77 -12.3 9.8
11:05 1024 30.24 854 25.22 -8.7 16.4 75 -12.4 9.7
11:10 1024 30.24 854 25.22 -8.8 16.3 79 -11.8 10.8
11:15 1024 30.24 854 25.22 -8.3 17.1 75 -11.9 10.6
11:20 1025 30.27 854 25.22 -7.9 17.8 76 -11.4 11.4
11:25 1025 30.27 854 25.22 -8 17.6 78 -11.2 11.8
11:30 1024 30.24 854 25.22 -8 17.6 76 -11.6 11.2
11:35 1025 30.27 854 25.22 -8.4 16.8 76 -12 10.4
11:40 1025 30.27 854 25.22 -8.3 17.1 76 -11.8 10.7
11:45 1024 30.24 854 25.22 -8.7 16.4 78 -11.9 10.6
11:50 1025 30.27 854 25.22 -8.6 16.6 77 -12 10.5
11:55 1025 30.27 854 25.22 -7.7 18.1 72 -11.9 10.6
12:00 1025 30.27 854 25.22 -7.6 18.4 74 -11.5 11.3
12:05 1025 30.27 854 25.22 -8 17.6 75 -11.7 11
12:10 1024 30.24 854 25.22 -7.9 17.7 76 -11.5 11.3
12:15 1024 30.24 854 25.22 -8 17.6 77 -11.4 11.5
12:20 1025 30.27 854 25.22 -7.9 17.7 75 -11.6 11.1
12:25 1025 30.27 854 25.22 -7.9 17.9 71 -12.2 10
12:30 1025 30.27 854 25.22 -8.2 17.3 75 -11.9 10.7
12:35 1025 30.27 854 25.22 -8.1 17.5 77 -11.4 11.5
12:40 1025 30.27 854 25.22 -8 17.6 79 -11.1 12.1
12:45 1024 30.24 854 25.22 -7.4 18.8 73 -11.3 11.6
12:50 1025 30.27 854 25.22 -7.5 18.5 73 -11.6 11.1
12:55 1025 30.27 854 25.22 -7.4 18.7 75 -11.1 12
13:00 1025 30.27 854 25.22 -7.3 18.9 76 -10.9 12.4
13:05 1025 30.27 854 25.22 -7.3 18.9 73 -11.4 11.5
13:10 1025 30.27 854 25.22 -7.2 19 74 -11.1 12
13:15 1025 30.27 854 25.22 -7.3 18.9 77 -10.6 12.8
13:20 1025 30.27 854 25.22 -7.4 18.6 76 -11 12.3
13:25 1024 30.24 854 25.22 -7.3 18.9 76 -10.9 12.4
13:30 1024 30.24 854 25.22 -7.1 19.3 76 -10.7 12.7
13:35 1024 30.24 854 25.22 -7.4 18.7 76 -10.9 12.4
13:40 1024 30.24 854 25.22 -8 17.6 76 -11.4 11.4
13:45 1024 30.24 854 25.22 -8 17.6 79 -11.1 12.1
13:50 1024 30.24 854 25.22 -7.5 18.4 73 -11.6 11.1
13:55 1024 30.24 854 25.22 -7.4 18.6 75 -11.2 11.9
14:00 1024 30.24 854 25.22 -7.3 19 74 -11.1 12.1
14:05 1024 30.24 854 25.22 -7.3 18.9 74 -11.1 12
14:10 1024 30.24 853 25.19 -7.4 18.7 74 -11.2 11.8
14:15 1024 30.24 853 25.19 -7.8 18 73 -11.8 10.8
14:20 1024 30.24 853 25.19 -7.8 17.9 74 -11.8 10.8
14:25 1024 30.24 853 25.19 -7.4 18.7 71 -11.8 10.7
14:30 1024 30.24 853 25.19 -7.3 18.8 74 -11.2 11.9
14:35 1024 30.24 853 25.19 -7.5 18.4 71 -12 10.5
14:40 1024 30.24 853 25.19 -7.2 19.1 70 -11.8 10.8
14:45 1024 30.24 853 25.19 -7.1 19.2 69 -11.9 10.7
14:50 1024 30.24 853 25.19 -7.4 18.6 75 -11.1 11.9
14:55 1024 30.24 854 25.22 -7.6 18.4 77 -11 12.2
15:00 1024 30.24 854 25.22 -7.3 18.9 78 -10.5 13.2
15:05 1024 30.24 854 25.22 -6.6 20.1 74 -10.5 13
15:10 1024 30.24 854 25.22 -6.6 20.1 72 -10.9 12.3
15:15 1024 30.24 854 25.22 -7 19.4 74 -10.9 12.3
15:20 1024 30.24 854 25.22 -7.3 18.9 74 -11.2 11.9
15:25 1024 30.24 854 25.22 -7.4 18.8 73 -11.3 11.6
15:30 1024 30.24 854 25.22 -7.3 18.9 73 -11.3 11.6
15:35 1024 30.24 854 25.22 -7.2 19.1 70 -11.8 10.7
15:40 1024 30.24 854 25.22 -6.7 20 70 -11.3 11.7
15:45 1024 30.24 854 25.22 -6.6 20.2 69 -11.3 11.7
15:50 1024 30.24 854 25.22 -6.6 20.1 72 -10.9 12.3
15:55 1024 30.24 854 25.22 -6.2 20.9 67 -11.3 11.6
16:00 1024 30.24 854 25.22 -6 21.2 69 -10.9 12.4
16:05 1024 30.24 854 25.22 -6.7 19.9 73 -10.9 12.4
16:10 1024 30.24 854 25.22 -6.6 20.1 70 -11.2 11.9
16:15 1025 30.27 854 25.22 -6.7 20 71 -11.1 12.1
16:20 1025 30.27 854 25.22 -7.1 19.1 71 -11.6 11.1
16:25 1025 30.27 854 25.22 -7.2 19.1 75 -10.9 12.4
16:30 1025 30.27 854 25.22 -7.3 18.9 78 -10.5 13.1
16:35 1025 30.27 854 25.22 -7.1 19.2 77 -10.4 13.2
16:40 1025 30.27 854 25.22 -6.8 19.7 74 -10.7 12.8
16:45 1024 30.24 854 25.22 -6.9 19.6 76 -10.4 13.3
16:50 1024 30.24 854 25.22 -6.6 20.2 74 -10.4 13.2
16:55 1024 30.24 854 25.22 -6.6 20.1 75 -10.3 13.4
17:00 1024 30.24 854 25.22 -6.7 20 75 -10.3 13.4
17:05 1024 30.24 854 25.22 -6.8 19.7 76 -10.3 13.4
17:10 1024 30.24 854 25.22 -7.6 18.4 80 -10.4 13.2
17:15 1024 30.24 854 25.22 -7.6 18.3 79 -10.7 12.8
17:20 1024 30.24 853 25.19 -7.5 18.5 79 -10.6 12.9
17:25 1024 30.24 854 25.22 -7.4 18.7 78 -10.5 13
17:30 1024 30.24 854 25.22 -7.4 18.7 80 -10.4 13.3
17:35 1024 30.24 854 25.22 -7 19.4 75 -10.7 12.8
17:40 1024 30.24 854 25.22 -6.9 19.5 75 -10.7 12.7
17:45 1024 30.24 854 25.22 -7.3 18.8 77 -10.7 12.7
17:50 1024 30.24 854 25.22 -7.6 18.3 79 -10.7 12.8
17:55 1024 30.24 854 25.22 -7.6 18.2 78 -10.8 12.5
18:00 1024 30.24 854 25.22 -7.6 18.2 78 -10.9 12.4
18:05 1024 30.24 854 25.22 -7.6 18.3 77 -10.9 12.3
18:10 1024 30.24 854 25.22 -7.6 18.2 77 -11 12.2
18:15 1024 30.24 853 25.19 -7.8 18 78 -10.9 12.3
18:20 1024 30.24 853 25.19 -7.7 18.2 77 -11.1 12
18:25 1024 30.24 853 25.19 -7.7 18.2 77 -11.1 12.1
18:30 1024 30.24 853 25.19 -7.8 18 78 -11.1 12.1
18:35 1024 30.24 854 25.22 -8 17.6 78 -11.2 11.8
18:40 1024 30.24 854 25.22 -7.9 17.7 76 -11.4 11.4
18:45 1024 30.24 854 25.22 -7.8 17.9 76 -11.4 11.5
18:50 1024 30.24 854 25.22 -8 17.6 78 -11.2 11.9
18:55 1024 30.24 854 25.22 -8.1 17.5 78 -11.2 11.8
19:00 1024 30.24 854 25.22 -8 17.5 77 -11.4 11.6
19:05 1024 30.24 854 25.22 -7.9 17.7 76 -11.4 11.4
19:10 1024 30.24 854 25.22 -7.9 17.9 76 -11.4 11.4
19:15 1024 30.24 854 25.22 -7.9 17.7 78 -11.2 11.9
19:20 1024 30.24 854 25.22 -8.1 17.4 80 -10.9 12.3
19:25 1025 30.27 854 25.22 -8.2 17.2 81 -10.9 12.3
19:30 1025 30.27 854 25.22 -8.2 17.2 81 -10.9 12.3
19:35 1025 30.27 854 25.22 -8.5 16.8 81 -11.2 11.8
19:40 1025 30.27 854 25.22 -9 15.9 83 -11.3 11.7
19:45 1025 30.27 854 25.22 -9.2 15.5 82 -11.8 10.8
19:50 1025 30.27 854 25.22 -9.4 15.2 81 -12 10.4
19:55 1025 30.27 854 25.22 -9.5 14.9 81 -12.2 10.1
20:00 1025 30.27 854 25.22 -9.6 14.8 79 -12.5 9.5
20:05 1025 30.27 854 25.22 -9.6 14.7 79 -12.6 9.3
20:10 1025 30.27 854 25.22 -9.6 14.7 78 -12.7 9.1
20:15 1025 30.27 854 25.22 -9.6 14.7 77 -12.9 8.8
20:20 1025 30.27 854 25.22 -9.7 14.6 77 -12.9 8.7
20:25 1025 30.27 854 25.22 -9.7 14.6 77 -12.9 8.7
20:30 1025 30.27 854 25.22 -9.7 14.6 77 -12.9 8.7
20:35 1025 30.27 854 25.22 -9.8 14.4 78 -13 8.6
20:40 1025 30.27 854 25.22 -9.9 14.1 78 -13.1 8.5
20:45 1025 30.27 854 25.22 -10 14 79 -13 8.5
20:50 1025 30.27 854 25.22 -10.1 13.9 78 -13.2 8.3
20:55 1025 30.27 854 25.22 -10.1 13.9 77 -13.4 7.9
21:00 1025 30.27 854 25.22 -10 14 77 -13.4 8
21:05 1025 30.27 854 25.22 -10 13.9 75 -13.6 7.5
21:10 1025 30.27 854 25.22 -10 14.1 75 -13.5 7.6
21:15 1025 30.27 854 25.22 -10 14.1 75 -13.6 7.6
21:20 1025 30.27 854 25.22 -10 14.1 75 -13.6 7.5
21:25 1025 30.27 854 25.22 -10 14.1 75 -13.6 7.4
21:30 1025 30.27 854 25.22 -10.1 13.8 75 -13.7 7.4
21:35 1025 30.27 854 25.22 -10.2 13.7 75 -13.7 7.3
21:40 1025 30.27 854 25.22 -10.2 13.6 75 -13.8 7.2
21:45 1025 30.27 854 25.22 -10.2 13.6 75 -13.8 7.2
21:50 1025 30.27 854 25.22 -10.3 13.5 75 -13.8 7.1
21:55 1025 30.27 854 25.22 -10.3 13.6 76 -13.8 7.2
22:00 1025 30.27 854 25.22 -10.3 13.5 76 -13.7 7.3
22:05 1025 30.27 854 25.22 -10.2 13.6 75 -13.8 7.1
22:10 1025 30.27 854 25.22 -10.1 13.7 75 -13.8 7.1
22:15 1025 30.27 854 25.22 -10.1 13.8 75 -13.8 7.1
22:20 1025 30.27 854 25.22 -10.2 13.6 75 -13.8 7.2
22:25 1025 30.27 854 25.22 -10.4 13.2 76 -13.9 7.1
22:30 1025 30.27 854 25.22 -10.5 13.1 77 -13.8 7.1
22:35 1025 30.27 854 25.22 -10.5 13.1 78 -13.7 7.3
22:40 1025 30.27 854 25.22 -10.6 12.9 79 -13.7 7.4
22:45 1025 30.27 854 25.22 -10.7 12.8 79 -13.7 7.3
22:50 1025 30.27 854 25.22 -10.8 12.6 80 -13.6 7.4
22:55 1025 30.27 854 25.22 -10.7 12.8 79 -13.6 7.5
23:00 1025 30.27 854 25.22 -10.7 12.8 80 -13.5 7.6
23:05 1025 30.27 854 25.22 -10.7 12.7 79 -13.6 7.5
23:10 1025 30.27 854 25.22 -10.8 12.5 79 -13.7 7.3
23:15 1025 30.27 854 25.22 -10.8 12.5 80 -13.7 7.3
23:20 1025 30.27 854 25.22 -10.8 12.5 79 -13.7 7.3
23:25 1025 30.27 854 25.22 -10.9 12.4 80 -13.7 7.3
23:30 1025 30.27 854 25.22 -10.9 12.4 79 -13.8 7.1
23:35 1025 30.27 854 25.22 -10.9 12.3 79 -13.9 7
23:40 1025 30.27 854 25.22 -10.9 12.4 80 -13.7 7.3
23:45 1025 30.27 854 25.22 -10.8 12.6 80 -13.6 7.4
23:50 1025 30.27 854 25.22 -10.7 12.7 79 -13.7 7.4
23:55 1025 30.27 854 25.22 -10.7 12.7 80 -13.6 7.5
24:00 1025 30.27 854 25.22 -10.6 12.9 79 -13.5 7.6